Time;durP1;ratioP1;P1;durP2;ratioP2;P2;SDS_P1;SDS_P2;PMS_P1;PMS_P2;Temp;Humidity;BMP_temperature;BMP_pressure;BME280_temperature;BME280_humidity;BME280_pressure;Samples;Min_cycle;Max_cycle;Signal;HPM_P1;HPM_P2
2022/03/16 00:00:56;;;;;;;7.37;3.60;;;;;;;-5.46;77.39;101634.22;1706605;84;21192;-83
2022/03/16 00:04:03;;;;;;;7.10;3.83;;;;;;;-5.48;77.50;101632.94;1738027;82;21168;-83
2022/03/16 00:07:08;;;;;;;8.55;3.55;;;;;;;-5.50;77.46;101628.12;1705481;84;21211;-75
2022/03/16 00:10:15;;;;;;;7.08;3.85;;;;;;;-5.48;77.59;101627.60;1737079;82;21214;-75
2022/03/16 00:13:20;;;;;;;6.35;3.55;;;;;;;-5.46;77.56;101632.45;1705223;84;21259;-75
2022/03/16 00:16:27;;;;;;;6.28;3.60;;;;;;;-5.44;77.50;101631.94;1736733;82;21206;-75
2022/03/16 00:19:34;;;;;;;7.45;3.20;;;;;;;-5.44;77.33;101623.06;1706584;84;21200;-82
2022/03/16 00:22:41;;;;;;;8.65;2.87;;;;;;;-5.53;77.20;101625.53;1736679;82;21740;-82
2022/03/16 00:25:47;;;;;;;5.83;3.12;;;;;;;-5.62;77.58;101612.91;1705578;84;21212;-75
2022/03/16 00:28:54;;;;;;;7.45;3.45;;;;;;;-5.66;78.01;101609.44;1736704;82;21246;-83
2022/03/16 00:32:01;;;;;;;5.22;3.02;;;;;;;-5.68;78.23;101608.62;1706318;84;21227;-82
2022/03/16 00:35:06;;;;;;;6.25;3.40;;;;;;;-5.66;78.44;101609.44;1738116;82;21164;-76
2022/03/16 00:38:06;;;;;;;7.53;3.72;;;;;;;-5.64;78.46;101602.30;1705413;84;21244;-83
2022/03/16 00:41:14;;;;;;;7.83;3.87;;;;;;;-5.62;78.45;101600.45;1736763;82;21775;-76
2022/03/16 00:44:19;;;;;;;6.08;2.90;;;;;;;-5.59;78.36;101602.17;1706634;84;21185;-81
2022/03/16 00:47:26;;;;;;;8.20;3.17;;;;;;;-5.57;78.34;101595.86;1736835;82;21203;-76
2022/03/16 00:50:34;;;;;;;5.03;3.10;;;;;;;-5.57;78.19;101606.53;1706625;84;21729;-76
2022/03/16 00:53:40;;;;;;;6.17;3.30;;;;;;;-5.62;78.04;101603.12;1735802;81;21199;-82
2022/03/16 00:56:46;;;;;;;4.00;2.50;;;;;;;-5.67;78.14;101596.58;1697866;84;21721;-83
2022/03/16 00:59:53;;;;;;;5.58;3.12;;;;;;;-5.67;78.18;101597.03;1734717;83;21602;-79
2022/03/16 01:02:58;;;;;;;4.58;2.72;;;;;;;-5.69;78.13;101602.42;1697624;84;21224;-83
2022/03/16 01:06:04;;;;;;;4.72;2.35;;;;;;;-5.72;78.05;101594.95;1734454;83;21199;-76
2022/03/16 01:09:10;;;;;;;5.10;3.22;;;;;;;-5.78;77.96;101590.67;1698662;84;21162;-83
2022/03/16 01:12:15;;;;;;;8.63;3.30;;;;;;;-5.85;78.09;101585.54;1734153;83;21199;-83
2022/03/16 01:15:23;;;;;;;6.03;3.15;;;;;;;-5.89;78.21;101590.53;1698685;84;21699;-76
2022/03/16 01:18:29;;;;;;;3.37;2.42;;;;;;;-5.93;78.41;101589.33;1729364;83;21151;-76
2022/03/16 01:21:34;;;;;;;7.28;2.85;;;;;;;-5.93;78.62;101596.42;1734664;83;21230;-83
2022/03/16 01:24:40;;;;;;;5.20;3.10;;;;;;;-5.93;78.75;101589.33;1697431;84;21239;-83
2022/03/16 01:27:46;;;;;;;4.58;3.00;;;;;;;-5.95;78.72;101587.61;1733695;83;21183;-76
2022/03/16 01:30:53;;;;;;;10.48;4.08;;;;;;;-5.99;79.01;101588.59;1698688;84;21785;-82
2022/03/16 01:33:59;;;;;;;8.78;4.20;;;;;;;-6.03;79.46;101585.59;1734787;83;21175;-82
2022/03/16 01:37:04;;;;;;;8.93;3.75;;;;;;;-6.04;79.67;101592.72;1698546;84;21220;-83
2022/03/16 01:40:11;;;;;;;6.20;3.02;;;;;;;-6.03;79.87;101593.13;1734799;82;21152;-83
2022/03/16 01:43:18;;;;;;;4.47;3.10;;;;;;;-6.00;80.03;101591.72;1698830;84;21201;-82
2022/03/16 01:46:23;;;;;;;8.18;3.70;;;;;;;-5.98;80.00;101597.88;1734775;83;21187;-76
2022/03/16 01:49:29;;;;;;;5.28;3.45;;;;;;;-6.02;80.02;101584.67;1698751;84;21188;-76
2022/03/16 01:52:36;;;;;;;10.82;3.92;;;;;;;-6.06;80.06;101588.36;1733905;83;21243;-76
2022/03/16 01:55:40;;;;;;;6.42;3.77;;;;;;;-6.06;80.16;101591.89;1694048;84;21216;-83
2022/03/16 01:58:46;;;;;;;7.33;3.87;;;;;;;-6.08;80.25;101585.71;1730414;83;21148;-83
2022/03/16 02:01:53;;;;;;;5.83;3.70;;;;;;;-6.07;80.35;101588.82;1730454;83;21204;-76
2022/03/16 02:05:16;;;;;;;5.92;2.98;;;;;;;-6.05;80.21;101590.10;1730786;83;21206;-83
2022/03/16 02:08:21;;;;;;;9.23;3.45;;;;;;;-6.07;80.12;101591.48;1730399;83;21195;-76
2022/03/16 02:11:26;;;;;;;10.72;3.25;;;;;;;-6.14;80.20;101585.87;1730407;83;21777;-76
2022/03/16 02:14:31;;;;;;;8.93;3.98;;;;;;;-6.19;80.44;101583.33;1729125;82;21167;-82
2022/03/16 02:17:37;;;;;;;5.37;3.00;;;;;;;-6.20;80.58;101584.72;1730422;83;21821;-76
2022/03/16 02:20:44;;;;;;;8.30;4.05;;;;;;;-6.19;80.74;101593.98;1729077;83;21163;-76
2022/03/16 02:23:50;;;;;;;5.17;3.17;;;;;;;-6.21;80.79;101593.17;1729113;82;21708;-75
2022/03/16 02:26:56;;;;;;;8.75;3.72;;;;;;;-6.19;80.90;101601.11;1730318;83;21175;-76
2022/03/16 02:30:01;;;;;;;8.73;4.15;;;;;;;-6.20;80.91;101591.38;1730392;83;21199;-82
2022/03/16 02:33:08;;;;;;;8.75;3.80;;;;;;;-6.22;81.02;101586.52;1730471;83;21756;-76
2022/03/16 02:36:14;;;;;;;7.55;4.62;;;;;;;-6.30;81.24;101582.74;1730404;83;21195;-82
2022/03/16 02:39:19;;;;;;;8.70;4.35;;;;;;;-6.32;81.59;101585.02;1730392;83;21164;-82
2022/03/16 02:42:25;;;;;;;11.88;5.17;;;;;;;-6.34;81.95;101588.18;1729530;83;21206;-75
2022/03/16 02:45:30;;;;;;;11.43;5.47;;;;;;;-6.35;82.27;101592.63;1730412;83;21152;-77
2022/03/16 02:48:35;;;;;;;8.28;5.12;;;;;;;-6.37;82.59;101592.23;1730359;83;21227;-76
2022/03/16 02:51:41;;;;;;;10.00;4.90;;;;;;;-6.39;82.96;101592.29;1730383;83;21195;-76
2022/03/16 02:54:47;;;;;;;8.30;4.70;;;;;;;-6.38;83.30;101595.83;1732016;81;21156;-83
2022/03/16 02:57:54;;;;;;;11.90;5.33;;;;;;;-6.39;83.64;101593.62;1694367;84;21220;-76
2022/03/16 03:01:00;;;;;;;16.12;6.42;;;;;;;-6.38;84.00;101594.03;1724957;83;21140;-82
2022/03/16 03:04:06;;;;;;;11.75;6.60;;;;;;;-6.41;84.18;101592.77;1693048;84;21192;-83
2022/03/16 03:07:11;;;;;;;13.13;6.58;;;;;;;-6.42;84.33;101591.48;1724980;83;21789;-83
2022/03/16 03:10:17;;;;;;;9.68;5.72;;;;;;;-6.42;84.44;101590.15;1693238;84;21224;-76
2022/03/16 03:13:22;;;;;;;11.28;5.42;;;;;;;-6.41;84.63;101590.09;1724981;83;21196;-82
2022/03/16 03:16:28;;;;;;;14.98;6.03;;;;;;;-6.46;84.83;101585.34;1694449;84;21220;-76
2022/03/16 03:19:34;;;;;;;18.50;6.62;;;;;;;-6.55;85.14;101574.92;1725049;83;21156;-76
2022/03/16 03:22:39;;;;;;;13.62;5.72;;;;;;;-6.59;85.59;101584.76;1694523;84;21224;-83
2022/03/16 03:25:45;;;;;;;14.93;6.78;;;;;;;-6.59;86.03;101587.42;1724939;83;21159;-76
2022/03/16 03:28:52;;;;;;;11.10;5.60;;;;;;;-6.59;86.37;101582.55;1694396;84;21249;-76
2022/03/16 03:31:58;;;;;;;12.82;5.92;;;;;;;-6.60;86.65;101587.47;1724860;83;21203;-76
2022/03/16 03:35:04;;;;;;;11.08;6.83;;;;;;;-6.63;86.98;101584.87;1694559;84;21165;-82
2022/03/16 03:38:11;;;;;;;18.23;6.58;;;;;;;-6.65;87.01;101593.36;1724973;83;21223;-83
2022/03/16 03:41:17;;;;;;;13.88;6.50;;;;;;;-6.65;87.20;101595.56;1694533;84;21157;-83
2022/03/16 03:44:09;;;;;;;;;;;;;;;-6.64;87.26;101586.66;1727383;83;21227;-76
2022/03/16 03:47:16;;;;;;;14.38;6.62;;;;;;;-6.58;87.42;101590.98;1705059;84;20204;-76
2022/03/16 03:50:21;;;;;;;14.43;7.35;;;;;;;-6.53;87.62;101598.41;1704989;84;21236;-76
2022/03/16 03:53:26;;;;;;;11.40;6.42;;;;;;;-6.49;87.60;101603.62;1676666;85;21240;-76
2022/03/16 03:56:31;;;;;;;20.43;6.08;;;;;;;-6.48;87.47;101594.71;1733559;82;21176;-82
2022/03/16 03:59:35;;;;;;;11.70;6.33;;;;;;;-6.44;87.42;101592.40;1738018;82;21191;-82
2022/03/16 04:02:41;;;;;;;11.38;5.72;;;;;;;-6.38;87.21;101598.48;1724874;83;21203;-75
2022/03/16 04:05:41;;;;;;;11.93;6.30;;;;;;;-6.34;86.97;101593.50;1694397;84;21188;-82
2022/03/16 04:08:33;;;;;;;10.25;5.95;;;;;;;-6.46;86.57;101598.20;1724776;83;21729;-76
2022/03/16 04:11:40;;;;;;;8.23;4.72;;;;;;;-6.56;86.65;101605.12;1694600;84;21220;-76
2022/03/16 04:14:39;;;;;;;20.77;7.12;;;;;;;-6.61;87.07;101609.22;1725003;83;21180;-83
2022/03/16 04:17:46;;;;;;;16.65;7.55;;;;;;;-6.64;87.35;101610.61;1694408;84;21244;-76
2022/03/16 04:20:52;;;;;;;10.35;6.75;;;;;;;-6.66;87.67;101608.45;1724948;83;21152;-83
2022/03/16 04:23:57;;;;;;;13.78;7.47;;;;;;;-6.61;87.97;101613.21;1694496;84;21176;-77
2022/03/16 04:27:02;;;;;;;16.40;7.15;;;;;;;-6.56;88.15;101613.11;1724898;83;21772;-82
2022/03/16 04:30:06;;;;;;;11.18;5.83;;;;;;;-6.51;88.44;101621.86;1694328;84;21180;-76
2022/03/16 04:33:12;;;;;;;13.22;7.30;;;;;;;-6.44;88.70;101614.16;1724861;83;21199;-76
2022/03/16 04:36:18;;;;;;;13.58;5.95;;;;;;;-6.33;88.84;101609.89;1694461;84;21213;-83
2022/03/16 04:39:23;;;;;;;11.53;6.58;;;;;;;-6.24;88.99;101614.53;1725079;83;21191;-75
2022/03/16 04:42:29;;;;;;;14.30;6.35;;;;;;;-6.17;89.05;101620.57;1694469;84;21806;-76
2022/03/16 04:45:37;;;;;;;8.08;5.30;;;;;;;-6.09;89.15;101622.59;1724909;83;21717;-75
2022/03/16 04:48:43;;;;;;;13.20;6.30;;;;;;;-6.03;89.24;101620.23;1694574;84;21232;-76
2022/03/16 04:51:48;;;;;;;13.60;6.42;;;;;;;-5.94;89.22;101618.20;1724903;83;21175;-82
2022/03/16 04:54:54;;;;;;;10.95;6.40;;;;;;;-5.86;89.18;101621.11;1694466;84;21212;-76
2022/03/16 04:58:00;;;;;;;10.08;5.33;;;;;;;-5.76;89.17;101633.27;1739124;81;21232;-75
2022/03/16 05:01:07;;;;;;;8.50;5.30;;;;;;;-5.68;89.05;101631.28;1757754;81;21200;-76
2022/03/16 05:04:14;;;;;;;8.43;5.55;;;;;;;-5.59;88.90;101632.37;1757839;81;21168;-82
2022/03/16 05:07:20;;;;;;;10.80;6.60;;;;;;;-5.52;88.73;101624.60;1757792;81;21718;-75
2022/03/16 05:10:26;;;;;;;9.18;5.35;;;;;;;-5.44;88.52;101637.27;1758042;81;21730;-75
2022/03/16 05:13:32;;;;;;;13.03;6.08;;;;;;;-5.37;88.28;101635.76;1757820;81;21722;-80
2022/03/16 05:16:37;;;;;;;8.53;5.78;;;;;;;-5.29;88.27;101638.63;1756388;81;21208;-77
2022/03/16 05:19:44;;;;;;;9.63;5.75;;;;;;;-5.21;88.01;101638.43;1757838;81;21168;-82
2022/03/16 05:22:57;;;;;;;12.37;5.70;;;;;;;-5.11;87.85;101645.24;1756262;81;21750;-75
2022/03/16 05:26:02;;;;;;;8.15;4.92;;;;;;;-5.00;87.45;101636.45;1757706;81;21212;-76
2022/03/16 05:29:08;;;;;;;8.70;5.00;;;;;;;-4.87;87.28;101644.11;1757798;81;21521;-75
2022/03/16 05:32:15;;;;;;;9.75;5.03;;;;;;;-4.75;87.01;101638.38;1757831;81;21856;-82
2022/03/16 05:35:20;;;;;;;12.53;5.22;;;;;;;-4.65;86.60;101649.22;1757934;81;21156;-81
2022/03/16 05:38:26;;;;;;;8.23;5.42;;;;;;;-4.54;85.56;101647.08;1757571;81;21204;-82
2022/03/16 05:41:32;;;;;;;8.50;4.72;;;;;;;-4.47;85.00;101651.33;1757575;81;21235;-79
2022/03/16 05:44:38;;;;;;;9.70;4.90;;;;;;;-4.34;84.16;101660.27;1753949;82;21823;-83
2022/03/16 05:47:43;;;;;;;6.40;5.15;;;;;;;-4.22;83.79;101658.09;1753900;82;21240;-76
2022/03/16 05:50:49;;;;;;;6.55;4.87;;;;;;;-4.07;83.15;101662.52;1753927;82;21203;-76
2022/03/16 05:53:55;;;;;;;7.40;4.70;;;;;;;-3.99;82.08;101668.50;1754109;82;21175;-83
2022/03/16 05:57:01;;;;;;;8.53;4.83;;;;;;;-3.93;81.48;101655.80;1754725;82;21175;-83
2022/03/16 06:00:07;;;;;;;12.10;4.87;;;;;;;-3.87;80.44;101659.59;1742254;82;21168;-76
2022/03/16 06:03:14;;;;;;;6.70;4.62;;;;;;;-3.81;80.60;101658.53;1743030;82;21211;-83
2022/03/16 06:06:20;;;;;;;6.47;4.47;;;;;;;-3.67;80.31;101659.36;1743509;82;21136;-76
2022/03/16 06:09:25;;;;;;;8.90;4.97;;;;;;;-3.54;79.44;101661.16;1743419;82;21726;-82
2022/03/16 06:12:32;;;;;;;25.32;4.37;;;;;;;-3.45;78.34;101654.16;1743496;82;21195;-82
2022/03/16 06:15:50;;;;;;;7.75;4.05;;;;;;;-3.39;77.82;101654.83;1743034;82;21239;-76
2022/03/16 06:19:00;;;;;;;5.90;4.00;;;;;;;-3.28;77.80;101657.11;1742436;82;21168;-83
2022/03/16 06:22:05;;;;;;;7.22;3.65;;;;;;;-3.15;78.00;101660.22;1741835;82;21172;-75
2022/03/16 06:25:11;;;;;;;6.62;4.10;;;;;;;-3.03;76.36;101662.90;1742991;82;21183;-82
2022/03/16 06:28:10;;;;;;;9.70;4.15;;;;;;;-2.94;76.07;101658.08;1743381;82;21488;-84
2022/03/16 06:31:02;;;;;;;4.78;3.65;;;;;;;-2.86;74.45;101657.80;1743076;82;21183;-76
2022/03/16 06:34:09;;;;;;;7.12;3.50;;;;;;;-2.82;74.59;101658.09;1743565;82;21188;-83
2022/03/16 06:37:16;;;;;;;8.75;3.47;;;;;;;-2.74;73.05;101668.02;1742541;82;21187;-83
2022/03/16 06:40:22;;;;;;;7.30;3.33;;;;;;;-2.68;71.78;101652.18;1742032;82;21168;-84
2022/03/16 06:43:23;;;;;;;5.50;3.17;;;;;;;-2.61;71.52;101656.38;1742066;82;21751;-83
2022/03/16 06:46:28;;;;;;;5.70;3.20;;;;;;;-2.52;71.40;101661.86;1742625;82;21707;-83
2022/03/16 06:49:35;;;;;;;6.03;3.30;;;;;;;-2.43;70.44;101654.33;1751539;80;21139;-83
2022/03/16 06:52:41;;;;;;;5.65;2.98;;;;;;;-2.30;69.83;101655.19;1779340;80;21220;-75
2022/03/16 06:55:46;;;;;;;3.15;2.70;;;;;;;-2.24;68.18;101664.31;1730997;83;21184;-75
2022/03/16 06:58:53;;;;;;;5.22;2.67;;;;;;;-2.23;65.68;101672.76;1731159;83;21191;-84
2022/03/16 07:01:59;;;;;;;8.53;3.10;;;;;;;-2.23;65.94;101669.60;1724565;81;21244;-75
2022/03/16 07:05:05;;;;;;;4.05;2.50;;;;;;;-2.21;65.95;101673.11;1717795;83;21223;-84
2022/03/16 07:08:12;;;;;;;5.33;3.25;;;;;;;-2.15;65.56;101670.17;1719809;82;21777;-76
2022/03/16 07:11:17;;;;;;;4.08;3.12;;;;;;;-2.08;66.28;101662.27;1717569;83;21201;-83
2022/03/16 07:14:32;;;;;;;11.40;3.75;;;;;;;-1.99;65.29;101675.78;1716370;83;21773;-76
2022/03/16 07:17:38;;;;;;;4.33;3.00;;;;;;;-1.96;64.06;101670.77;1717626;82;21212;-75
2022/03/16 07:20:44;;;;;;;18.27;3.60;;;;;;;-1.96;63.46;101666.75;1722154;83;21241;-75
2022/03/16 07:23:50;;;;;;;3.95;2.47;;;;;;;-2.00;62.23;101665.99;1751190;82;21147;-75
2022/03/16 07:26:55;;;;;;;7.42;3.33;;;;;;;-2.16;61.59;101678.30;1731091;83;21231;-75
2022/03/16 07:30:01;;;;;;;4.22;3.17;;;;;;;-2.30;62.60;101670.80;1756568;81;21237;-75
2022/03/16 07:33:07;;;;;;;4.35;2.58;;;;;;;-2.35;62.86;101674.13;1744829;81;21204;-83
2022/03/16 07:36:12;;;;;;;4.03;3.30;;;;;;;-2.27;62.17;101663.09;1754639;81;21749;-82
2022/03/16 07:39:17;;;;;;;5.20;2.90;;;;;;;-2.12;63.37;101657.09;1731208;83;21157;-83
2022/03/16 07:42:22;;;;;;;2.35;1.92;;;;;;;-1.87;61.30;101659.19;1731402;83;21224;-82
2022/03/16 07:45:27;;;;;;;3.52;2.25;;;;;;;-1.65;60.00;101648.41;1731425;83;21200;-76
2022/03/16 07:48:34;;;;;;;1.98;1.70;;;;;;;-1.44;57.89;101649.30;1731240;83;21200;-75
2022/03/16 07:51:40;;;;;;;5.47;2.90;;;;;;;-1.30;55.71;101653.59;1736052;81;21654;-82
2022/03/16 07:54:46;;;;;;;2.70;2.05;;;;;;;-1.06;56.57;101648.06;1721856;83;21184;-75
2022/03/16 07:57:54;;;;;;;4.62;2.67;;;;;;;-0.80;54.84;101640.14;1751628;82;21608;-76
2022/03/16 08:00:59;;;;;;;3.08;2.30;;;;;;;-0.61;55.35;101641.49;1751643;82;21217;-82
2022/03/16 08:04:06;;;;;;;4.20;2.90;;;;;;;-0.61;53.87;101638.80;1756355;81;21261;-82
2022/03/16 08:07:11;;;;;;;3.33;2.00;;;;;;;-0.81;54.03;101639.75;1786456;80;21737;-76
2022/03/16 08:10:18;;;;;;;2.12;1.80;;;;;;;-0.98;52.39;101640.54;1791358;80;21136;-75
2022/03/16 08:13:25;;;;;;;3.87;2.45;;;;;;;-1.01;53.48;101647.39;1789894;80;21211;-82
2022/03/16 08:16:31;;;;;;;18.25;3.20;;;;;;;-1.01;53.92;101635.30;1769665;80;21247;-75
2022/03/16 08:19:39;;;;;;;3.30;2.47;;;;;;;-0.97;54.08;101640.94;1775604;80;21152;-82
2022/03/16 08:22:44;;;;;;;3.05;2.15;;;;;;;-0.93;53.46;101648.39;1747278;80;21777;-75
2022/03/16 08:25:52;;;;;;;3.77;2.35;;;;;;;-0.98;53.32;101636.52;1750745;80;21718;-82
2022/03/16 08:28:57;;;;;;;3.60;2.22;;;;;;;-0.93;53.51;101635.83;1758122;80;21756;-75
2022/03/16 08:32:03;;;;;;;6.75;2.67;;;;;;;-0.84;53.29;101642.59;1757449;81;21201;-75
2022/03/16 08:35:12;;;;;;;4.20;2.45;;;;;;;-0.82;52.91;101645.59;1742454;81;21223;-75
2022/03/16 08:38:17;;;;;;;7.87;3.05;;;;;;;-0.67;53.62;101637.76;1785156;78;21160;-75
2022/03/16 08:41:23;;;;;;;3.98;2.58;;;;;;;-0.54;54.04;101646.52;1752754;81;21193;-75
2022/03/16 08:44:29;;;;;;;4.50;2.33;;;;;;;-0.50;54.37;101646.38;1743120;80;21168;-81
2022/03/16 08:47:33;;;;;;;2.60;2.40;;;;;;;-0.49;52.91;101646.78;1750855;81;21180;-81
2022/03/16 08:50:40;;;;;;;4.90;3.22;;;;;;;-0.50;53.36;101656.66;1746537;81;21160;-81
2022/03/16 08:53:46;;;;;;;5.85;2.90;;;;;;;-0.52;52.74;101641.96;1745526;80;21209;-82
2022/03/16 08:56:52;;;;;;;2.95;2.08;;;;;;;-0.54;52.37;101641.62;1733071;80;21204;-75
2022/03/16 08:59:58;;;;;;;4.25;2.40;;;;;;;-0.52;52.27;101659.88;1732767;81;21485;-82
2022/03/16 09:03:04;;;;;;;6.75;3.40;;;;;;;-0.54;52.33;101645.65;1739489;81;21248;-82
2022/03/16 09:06:11;;;;;;;4.83;2.33;;;;;;;-0.49;51.43;101648.13;1720583;82;21176;-75
2022/03/16 09:09:17;;;;;;;3.72;2.00;;;;;;;-0.46;51.50;101646.16;1733911;81;21196;-82
2022/03/16 09:12:23;;;;;;;4.45;2.27;;;;;;;-0.39;52.08;101644.91;1731280;81;21262;-75
2022/03/16 09:15:29;;;;;;;5.58;2.98;;;;;;;-0.35;50.92;101640.27;1734099;81;21179;-76
2022/03/16 09:18:34;;;;;;;3.80;2.40;;;;;;;-0.38;50.28;101637.71;1702181;84;21758;-75
2022/03/16 09:21:40;;;;;;;2.47;2.20;;;;;;;-0.42;50.90;101637.02;1734958;81;21174;-82
2022/03/16 09:24:48;;;;;;;5.37;3.02;;;;;;;-0.45;50.97;101637.15;1713941;82;21240;-75
2022/03/16 09:27:47;;;;;;;4.05;2.20;;;;;;;-0.42;51.05;101634.80;1746173;81;21647;-81
2022/03/16 09:30:39;;;;;;;2.75;2.30;;;;;;;-0.38;50.59;101635.89;1742565;81;21220;-76
2022/03/16 09:33:44;;;;;;;4.47;2.58;;;;;;;-0.30;51.08;101633.71;1762170;81;21183;-82
2022/03/16 09:36:50;;;;;;;4.87;3.02;;;;;;;-0.21;50.84;101627.02;1733574;81;21176;-82
2022/03/16 09:39:55;;;;;;;3.00;2.30;;;;;;;0.03;50.98;101627.62;1760551;81;21514;-76
2022/03/16 09:43:01;;;;;;;3.10;2.40;;;;;;;0.24;49.07;101634.63;1733586;81;21802;-81
2022/03/16 09:46:21;;;;;;;2.77;2.30;;;;;;;0.30;48.49;101632.56;1755056;81;21184;-77
2022/03/16 09:49:28;;;;;;;7.28;2.35;;;;;;;0.30;48.51;101633.91;1732673;81;21229;-76
2022/03/16 09:52:34;;;;;;;3.98;2.50;;;;;;;0.32;48.85;101624.79;1730565;82;21208;-76
2022/03/16 09:55:40;;;;;;;4.08;2.60;;;;;;;0.39;48.51;101616.81;1758178;81;21729;-75
2022/03/16 09:58:47;;;;;;;2.83;2.47;;;;;;;0.43;47.96;101625.12;1736894;81;21160;-77
2022/03/16 10:01:53;;;;;;;4.53;2.52;;;;;;;0.43;47.25;101618.88;1731858;81;21274;-82
2022/03/16 10:04:59;;;;;;;5.62;2.90;;;;;;;0.41;47.89;101613.55;1734325;80;21243;-82
2022/03/16 10:08:08;;;;;;;3.67;2.95;;;;;;;0.36;47.28;101622.81;1682275;83;21577;-82
2022/03/16 10:14:45;;;;;;;5.03;3.22;;;;;;;0.08;47.10;101618.84;1759116;81;21176;-82
2022/03/16 10:17:52;;;;;;;3.33;2.47;;;;;;;-0.11;47.20;101605.44;1782625;80;21805;-76
2022/03/16 10:20:57;;;;;;;4.40;2.47;;;;;;;0.07;49.15;101603.66;1763922;79;21208;-82
2022/03/16 10:24:08;;;;;;;3.27;2.47;;;;;;;0.36;47.94;101602.63;1754380;81;21172;-76
2022/03/16 10:27:12;;;;;;;;;;;;;;;0.62;46.97;101600.80;1780494;79;21192;-82
2022/03/16 10:30:20;;;;;;;5.67;3.35;;;;;;;0.68;46.11;101593.73;1775461;79;20229;-82
2022/03/16 10:33:25;;;;;;;9.23;2.67;;;;;;;0.67;45.25;101600.56;1782325;80;21196;-76
2022/03/16 10:36:32;;;;;;;4.33;2.17;;;;;;;0.63;45.15;101595.80;1778149;79;21665;-82
2022/03/16 10:39:43;;;;;;;6.40;2.75;;;;;;;0.59;45.99;101596.91;1783817;80;21192;-82
2022/03/16 10:46:35;;;;;;;4.03;2.77;;;;;;;0.39;45.57;101589.89;1783026;80;21169;-76
2022/03/16 10:49:40;;;;;;;5.35;2.62;;;;;;;0.33;46.80;101589.32;1782364;79;22018;-77
2022/03/16 10:52:47;;;;;;;4.45;2.87;;;;;;;0.44;47.00;101584.27;1781097;80;21251;-82
2022/03/16 10:55:52;;;;;;;4.50;2.55;;;;;;;0.47;47.35;101574.66;1782624;80;21184;-76
2022/03/16 10:58:59;;;;;;;6.75;2.70;;;;;;;0.64;46.94;101581.38;1783556;80;21560;-81
2022/03/16 11:02:14;;;;;;;4.62;2.30;;;;;;;0.78;45.25;101574.39;1784179;80;21191;-76
2022/03/16 11:05:20;;;;;;;5.55;2.35;;;;;;;0.69;44.52;101568.54;1785060;79;21187;-82
2022/03/16 11:08:26;;;;;;;4.30;2.45;;;;;;;0.49;45.14;101573.64;1751530;82;21220;-76
2022/03/16 11:15:01;;;;;;;3.90;2.45;;;;;;;0.56;47.24;101556.67;1752102;82;21188;-82
2022/03/16 11:18:06;;;;;;;5.03;3.02;;;;;;;0.61;47.44;101558.67;1752108;82;21196;-76
2022/03/16 11:21:16;;;;;;;4.10;2.90;;;;;;;0.52;47.10;101565.90;1752143;80;21801;-82
2022/03/16 11:24:25;;;;;;;6.77;2.60;;;;;;;0.49;46.98;101556.63;1752444;82;21211;-82
2022/03/16 11:27:35;;;;;;;4.25;2.80;;;;;;;0.59;46.39;101549.80;1752024;82;21247;-82
2022/03/16 11:30:42;;;;;;;4.55;2.87;;;;;;;0.68;46.11;101554.69;1751754;82;21220;-82
2022/03/16 11:33:59;;;;;;;8.70;2.50;;;;;;;0.67;45.33;101551.61;1751319;82;21172;-76
2022/03/16 11:37:14;;;;;;;5.22;2.77;;;;;;;0.58;45.19;101548.06;1750549;80;21785;-82
2022/03/16 11:40:30;;;;;;;8.05;5.05;;;;;;;0.35;45.37;101561.39;1751498;82;21204;-82
2022/03/16 11:43:40;;;;;;;106.15;37.13;;;;;;;0.28;46.01;101559.09;1751106;82;21184;-77
2022/03/16 11:46:47;;;;;;;20.15;8.18;;;;;;;0.34;44.76;101554.75;1749619;82;21219;-82
2022/03/16 11:50:16;;;;;;;34.80;20.82;;;;;;;0.45;43.20;101549.66;1751110;82;21180;-76
2022/03/16 11:53:22;;;;;;;33.42;10.88;;;;;;;0.56;45.12;101539.17;1751095;82;21219;-82
2022/03/16 11:56:36;;;;;;;14.53;7.22;;;;;;;0.64;48.45;101550.89;1751451;82;21195;-76
2022/03/16 11:59:46;;;;;;;8.95;5.50;;;;;;;0.44;48.25;101541.20;1751605;82;21167;-76
2022/03/16 12:02:49;;;;;;;5.28;3.30;;;;;;;0.12;49.09;101543.75;1750506;82;21285;-76
2022/03/16 12:06:04;;;;;;;10.82;5.17;;;;;;;-0.18;49.83;101548.02;1752190;80;21172;-76
2022/03/16 12:09:10;;;;;;;6.87;4.33;;;;;;;-0.47;49.78;101539.59;1782275;80;21243;-82
2022/03/16 12:16:00;;;;;;;5.65;2.75;;;;;;;-0.39;49.31;101539.19;1785308;80;21722;-82
2022/03/16 12:19:08;;;;;;;5.67;2.75;;;;;;;-0.13;47.08;101541.93;1785410;80;21761;-77
2022/03/16 12:22:15;;;;;;;5.30;3.00;;;;;;;0.12;47.75;101546.44;1754006;81;21215;-76
2022/03/16 12:25:35;;;;;;;9.45;5.92;;;;;;;0.35;46.18;101543.03;1767071;81;21172;-76
2022/03/16 12:32:00;;;;;;;9.13;5.17;;;;;;;0.38;46.69;101559.03;1787044;80;21756;-82
2022/03/16 12:35:05;;;;;;;17.82;6.40;;;;;;;0.36;47.25;101556.88;1767040;80;21719;-76
2022/03/16 12:38:15;;;;;;;6.22;3.55;;;;;;;0.39;47.36;101540.57;1785695;80;21206;-82
2022/03/16 12:44:45;;;;;;;7.22;4.25;;;;;;;0.36;48.35;101548.32;1786358;80;21748;-76
2022/03/16 12:47:55;;;;;;;4.30;2.75;;;;;;;0.28;50.61;101551.02;1785215;80;21217;-76
2022/03/16 12:51:01;;;;;;;5.85;3.58;;;;;;;0.23;50.26;101545.39;1786786;80;21158;-81
2022/03/16 12:54:08;;;;;;;6.60;3.62;;;;;;;0.20;50.71;101547.39;1786707;80;21758;-82
2022/03/16 12:57:15;;;;;;;6.53;3.50;;;;;;;0.16;50.55;101539.08;1785987;80;21173;-75
2022/03/16 13:00:20;;;;;;;3.92;2.92;;;;;;;0.11;50.61;101537.11;1787736;80;21166;-75
2022/03/16 13:03:25;;;;;;;9.00;3.60;;;;;;;0.06;50.68;101543.20;1787376;80;21186;-82
2022/03/16 13:06:34;;;;;;;32.08;14.25;;;;;;;0.01;50.34;101538.06;1787768;80;21198;-76
2022/03/16 13:09:42;;;;;;;11.40;5.95;;;;;;;-0.03;50.49;101545.89;1764746;80;21233;-76
2022/03/16 13:12:56;;;;;;;7.45;4.67;;;;;;;-0.02;50.12;101535.52;1779479;80;21193;-75
2022/03/16 13:16:01;;;;;;;26.73;15.63;;;;;;;0.01;50.59;101541.23;1780910;80;21150;-82
2022/03/16 13:19:06;;;;;;;22.62;13.48;;;;;;;0.00;53.00;101539.02;1780985;80;21159;-82
2022/03/16 13:22:22;;;;;;;14.80;6.55;;;;;;;-0.08;53.66;101536.70;1780105;80;21234;-82
2022/03/16 13:25:27;;;;;;;18.23;7.97;;;;;;;-0.20;55.77;101553.93;1780309;80;21147;-82
2022/03/16 13:28:32;;;;;;;18.60;9.78;;;;;;;-0.37;56.77;101550.28;1780256;80;21159;-76
2022/03/16 13:31:42;;;;;;;30.70;15.30;;;;;;;-0.47;57.29;101548.10;1780289;80;21205;-81
2022/03/16 13:34:49;;;;;;;22.13;12.63;;;;;;;-0.54;58.49;101547.07;1780255;80;21783;-82
2022/03/16 13:38:04;;;;;;;68.35;33.58;;;;;;;-0.56;61.00;101560.20;1780840;80;21233;-83
2022/03/16 13:41:09;;;;;;;52.80;25.35;;;;;;;-0.63;60.99;101562.77;1780977;80;21695;-82
2022/03/16 13:44:15;;;;;;;39.33;19.37;;;;;;;-0.69;61.53;101568.45;1783807;80;21158;-75
2022/03/16 13:47:27;;;;;;;59.03;29.20;;;;;;;-0.66;60.03;101566.94;1780945;80;21186;-76
2022/03/16 13:50:33;;;;;;;35.98;18.27;;;;;;;-0.73;58.46;101562.83;1781070;80;21155;-83
2022/03/16 13:53:52;;;;;;;66.10;28.75;;;;;;;-0.83;58.38;101555.20;1780972;80;21304;-76
2022/03/16 13:56:58;;;;;;;8.10;5.05;;;;;;;-0.90;58.14;101568.51;1781037;80;21783;-82
2022/03/16 14:00:08;;;;;;;10.85;4.75;;;;;;;-0.93;58.57;101559.27;1782310;80;21161;-76
2022/03/16 14:03:14;;;;;;;58.30;23.87;;;;;;;-0.95;58.45;101562.48;1781166;80;21195;-76
2022/03/16 14:06:22;;;;;;;35.43;16.35;;;;;;;-0.92;58.32;101551.61;1780956;80;21147;-76
2022/03/16 14:09:29;;;;;;;20.92;11.78;;;;;;;-0.85;58.28;101561.58;1782156;80;21250;-76
2022/03/16 14:12:47;;;;;;;17.65;10.63;;;;;;;-0.84;57.47;101547.23;1787023;80;21205;-76
2022/03/16 14:15:53;;;;;;;14.83;7.67;;;;;;;-0.87;57.76;101550.91;1788463;80;21208;-77
2022/03/16 14:18:59;;;;;;;19.98;8.13;;;;;;;-0.88;58.77;101549.18;1785628;80;21752;-75
2022/03/16 14:22:05;;;;;;;16.32;7.72;;;;;;;-0.80;59.34;101539.39;1785830;80;21240;-76
2022/03/16 14:25:24;;;;;;;24.57;13.72;;;;;;;-0.72;58.73;101545.75;1785551;80;21185;-76
2022/03/16 14:28:30;;;;;;;60.63;33.28;;;;;;;-0.70;59.27;101558.18;1785794;80;21166;-82
2022/03/16 14:31:37;;;;;;;27.10;15.48;;;;;;;-0.80;59.21;101549.70;1785616;80;21233;-83
2022/03/16 14:34:43;;;;;;;9.70;6.50;;;;;;;-0.96;57.62;101552.69;1785739;80;21194;-82
2022/03/16 14:37:53;;;;;;;7.30;5.28;;;;;;;-1.12;58.04;101563.77;1785562;80;21180;-82
2022/03/16 14:40:58;;;;;;;13.48;4.05;;;;;;;-1.30;58.13;101562.80;1785694;80;21726;-76
2022/03/16 14:44:05;;;;;;;6.67;3.90;;;;;;;-1.43;58.24;101559.78;1785761;80;21194;-82
2022/03/16 14:47:12;;;;;;;8.10;3.95;;;;;;;-1.53;59.14;101554.44;1785636;80;21173;-83